BNE weather

Brisbane International Airport
Brisbane, Queensland, Australia

Public forecast

Using degrees Celsius for public forecast. Weather courtesy of forecast.io.

METAR (pilot weather report)

Retrieved 2018/01/20 16:30 UTC (11 minutes ago):

YBBN 201630Z 20006KT 9999 FEW023 22/18 Q1011 FM1700 20006KT 9999 FEW025 SCT050

TAF (pilot weather forecast)

Retrieved 2018/01/20 12:00 UTC (5 hours ago):

TAF YBBN 201105Z 2012/2118 15007KT 9999 FEW030 FM201500 20008KT 9999 FEW025 SCT050 FM202200 15010KT 9999 -SHRA BKN025 BKN050 FM210200 09014KT 9999 SCT030 SCT060 FM211100 14005KT 9999 SCT025